sensor_id;sensor_type;location;lat;lon;timestamp;pressure;altitude;pressure_sealevel;temperature;humidity
73501;BME280;61721;42.206;25.320;2022-10-16T00:01:52;100342.88;;;11.82;48.22
73501;BME280;61721;42.206;25.320;2022-10-16T00:04:20;100344.84;;;11.80;47.78
73501;BME280;61721;42.206;25.320;2022-10-16T00:06:48;100348.38;;;11.81;47.74
73501;BME280;61721;42.206;25.320;2022-10-16T00:09:22;100353.56;;;11.73;48.20
73501;BME280;61721;42.206;25.320;2022-10-16T00:11:50;100357.91;;;11.53;48.15
73501;BME280;61721;42.206;25.320;2022-10-16T00:14:20;100347.00;;;11.45;49.16
73501;BME280;61721;42.206;25.320;2022-10-16T00:16:49;100348.97;;;11.43;49.13
73501;BME280;61721;42.206;25.320;2022-10-16T00:19:17;100347.75;;;11.47;48.59
73501;BME280;61721;42.206;25.320;2022-10-16T00:21:46;100350.59;;;11.55;48.50
73501;BME280;61721;42.206;25.320;2022-10-16T00:24:21;100347.91;;;11.55;48.14
73501;BME280;61721;42.206;25.320;2022-10-16T00:26:55;100351.44;;;11.55;48.40
73501;BME280;61721;42.206;25.320;2022-10-16T00:29:25;100349.50;;;11.57;48.02
73501;BME280;61721;42.206;25.320;2022-10-16T00:31:53;100351.44;;;11.55;48.41
73501;BME280;61721;42.206;25.320;2022-10-16T00:34:22;100352.31;;;11.56;48.31
73501;BME280;61721;42.206;25.320;2022-10-16T00:36:53;100357.38;;;11.59;48.31
73501;BME280;61721;42.206;25.320;2022-10-16T00:39:28;100355.69;;;11.58;48.32
73501;BME280;61721;42.206;25.320;2022-10-16T00:41:57;100355.38;;;11.51;48.43
73501;BME280;61721;42.206;25.320;2022-10-16T00:44:48;100354.31;;;11.43;48.46
73501;BME280;61721;42.206;25.320;2022-10-16T00:47:23;100362.84;;;11.27;47.87
73501;BME280;61721;42.206;25.320;2022-10-16T00:49:57;100366.69;;;11.13;48.39
73501;BME280;61721;42.206;25.320;2022-10-16T00:52:26;100363.34;;;11.00;48.16
73501;BME280;61721;42.206;25.320;2022-10-16T00:54:56;100372.34;;;10.99;48.99
73501;BME280;61721;42.206;25.320;2022-10-16T00:57:25;100370.91;;;10.95;48.33
73501;BME280;61721;42.206;25.320;2022-10-16T01:00:02;100368.25;;;10.95;48.02
73501;BME280;61721;42.206;25.320;2022-10-16T01:02:30;100372.00;;;10.93;48.55
73501;BME280;61721;42.206;25.320;2022-10-16T01:04:59;100387.22;;;10.92;49.01
73501;BME280;61721;42.206;25.320;2022-10-16T01:07:41;100382.59;;;10.94;49.00
73501;BME280;61721;42.206;25.320;2022-10-16T01:10:19;100380.31;;;10.90;48.50
73501;BME280;61721;42.206;25.320;2022-10-16T01:12:53;100388.47;;;10.88;48.78
73501;BME280;61721;42.206;25.320;2022-10-16T01:15:31;100398.19;;;10.89;48.59
73501;BME280;61721;42.206;25.320;2022-10-16T01:18:08;100395.03;;;10.95;48.74
73501;BME280;61721;42.206;25.320;2022-10-16T01:20:40;100385.75;;;10.99;48.06
73501;BME280;61721;42.206;25.320;2022-10-16T01:23:22;100381.81;;;11.03;48.12
73501;BME280;61721;42.206;25.320;2022-10-16T01:26:20;100381.59;;;11.06;47.91
73501;BME280;61721;42.206;25.320;2022-10-16T01:28:56;100375.22;;;11.07;48.53
73501;BME280;61721;42.206;25.320;2022-10-16T01:31:30;100384.97;;;11.08;48.18
73501;BME280;61721;42.206;25.320;2022-10-16T01:34:02;100384.97;;;11.08;48.64
73501;BME280;61721;42.206;25.320;2022-10-16T01:36:37;100382.44;;;11.07;48.70
73501;BME280;61721;42.206;25.320;2022-10-16T01:39:09;100394.59;;;11.11;48.17
73501;BME280;61721;42.206;25.320;2022-10-16T01:41:41;100395.28;;;11.13;48.31
73501;BME280;61721;42.206;25.320;2022-10-16T01:44:17;100396.38;;;11.22;48.09
73501;BME280;61721;42.206;25.320;2022-10-16T01:46:50;100395.81;;;11.28;48.06
73501;BME280;61721;42.206;25.320;2022-10-16T01:49:21;100395.31;;;11.34;47.59
73501;BME280;61721;42.206;25.320;2022-10-16T01:51:54;100398.47;;;11.39;47.84
73501;BME280;61721;42.206;25.320;2022-10-16T01:54:27;100398.22;;;11.42;47.85
73501;BME280;61721;42.206;25.320;2022-10-16T01:57:02;100395.72;;;11.50;47.43
73501;BME280;61721;42.206;25.320;2022-10-16T01:59:43;100393.63;;;11.53;47.96
73501;BME280;61721;42.206;25.320;2022-10-16T02:02:15;100390.81;;;11.55;47.32
73501;BME280;61721;42.206;25.320;2022-10-16T02:04:48;100385.16;;;11.58;47.75
73501;BME280;61721;42.206;25.320;2022-10-16T02:07:18;100392.69;;;11.64;47.99
73501;BME280;61721;42.206;25.320;2022-10-16T02:09:46;100399.66;;;11.67;47.93
73501;BME280;61721;42.206;25.320;2022-10-16T02:12:23;100396.69;;;11.70;47.92
73501;BME280;61721;42.206;25.320;2022-10-16T02:15:00;100396.47;;;11.73;47.74
73501;BME280;61721;42.206;25.320;2022-10-16T02:17:35;100401.69;;;11.74;47.63
73501;BME280;61721;42.206;25.320;2022-10-16T02:20:04;100405.09;;;11.76;48.04
73501;BME280;61721;42.206;25.320;2022-10-16T02:22:43;100404.97;;;11.78;48.01
73501;BME280;61721;42.206;25.320;2022-10-16T02:25:18;100410.19;;;11.79;47.56
73501;BME280;61721;42.206;25.320;2022-10-16T02:27:53;100407.09;;;11.84;47.74
73501;BME280;61721;42.206;25.320;2022-10-16T02:30:27;100413.75;;;11.89;48.03
73501;BME280;61721;42.206;25.320;2022-10-16T02:32:58;100407.28;;;11.92;47.82
73501;BME280;61721;42.206;25.320;2022-10-16T02:35:35;100416.03;;;11.94;47.65
73501;BME280;61721;42.206;25.320;2022-10-16T02:38:05;100422.00;;;11.97;47.61
73501;BME280;61721;42.206;25.320;2022-10-16T02:40:34;100420.03;;;11.99;48.14
73501;BME280;61721;42.206;25.320;2022-10-16T02:43:04;100416.38;;;12.00;48.02
73501;BME280;61721;42.206;25.320;2022-10-16T02:45:34;100419.78;;;12.03;47.47
73501;BME280;61721;42.206;25.320;2022-10-16T02:48:02;100422.91;;;12.08;47.60
73501;BME280;61721;42.206;25.320;2022-10-16T02:50:31;100420.91;;;12.10;47.70
73501;BME280;61721;42.206;25.320;2022-10-16T02:53:00;100423.06;;;12.16;48.00
73501;BME280;61721;42.206;25.320;2022-10-16T02:55:28;100422.81;;;12.19;47.99
73501;BME280;61721;42.206;25.320;2022-10-16T02:58:02;100429.75;;;12.21;47.67
73501;BME280;61721;42.206;25.320;2022-10-16T03:00:31;100421.81;;;12.20;47.87
73501;BME280;61721;42.206;25.320;2022-10-16T03:03:01;100420.13;;;12.19;48.47
73501;BME280;61721;42.206;25.320;2022-10-16T03:05:29;100425.75;;;12.16;48.20
73501;BME280;61721;42.206;25.320;2022-10-16T03:07:57;100427.47;;;12.17;47.99
73501;BME280;61721;42.206;25.320;2022-10-16T03:10:27;100425.50;;;12.19;48.39
73501;BME280;61721;42.206;25.320;2022-10-16T03:12:55;100431.84;;;12.18;48.54
73501;BME280;61721;42.206;25.320;2022-10-16T03:15:29;100440.16;;;12.15;48.40
73501;BME280;61721;42.206;25.320;2022-10-16T03:17:57;100442.38;;;12.10;48.54
73501;BME280;61721;42.206;25.320;2022-10-16T03:20:27;100433.03;;;12.04;49.01
73501;BME280;61721;42.206;25.320;2022-10-16T03:22:56;100437.50;;;11.94;48.62
73501;BME280;61721;42.206;25.320;2022-10-16T03:25:24;100437.19;;;11.87;49.38
73501;BME280;61721;42.206;25.320;2022-10-16T03:27:52;100436.03;;;11.80;48.92
73501;BME280;61721;42.206;25.320;2022-10-16T03:30:21;100438.97;;;11.77;49.25
73501;BME280;61721;42.206;25.320;2022-10-16T03:32:49;100440.44;;;11.70;49.81
73501;BME280;61721;42.206;25.320;2022-10-16T03:35:20;100445.63;;;11.62;49.87
73501;BME280;61721;42.206;25.320;2022-10-16T03:37:51;100448.53;;;11.59;50.00
73501;BME280;61721;42.206;25.320;2022-10-16T03:40:19;100444.44;;;11.55;49.74
73501;BME280;61721;42.206;25.320;2022-10-16T03:42:48;100445.69;;;11.51;49.90
73501;BME280;61721;42.206;25.320;2022-10-16T03:45:16;100447.16;;;11.44;49.68
73501;BME280;61721;42.206;25.320;2022-10-16T03:47:45;100450.63;;;11.35;49.91
73501;BME280;61721;42.206;25.320;2022-10-16T03:50:14;100454.06;;;11.26;50.46
73501;BME280;61721;42.206;25.320;2022-10-16T03:52:43;100459.56;;;11.24;49.93
73501;BME280;61721;42.206;25.320;2022-10-16T03:55:13;100467.97;;;11.20;50.12
73501;BME280;61721;42.206;25.320;2022-10-16T03:57:41;100467.50;;;11.14;50.51
73501;BME280;61721;42.206;25.320;2022-10-16T04:00:16;100468.75;;;11.10;50.46
73501;BME280;61721;42.206;25.320;2022-10-16T04:02:44;100465.00;;;11.02;50.90
73501;BME280;61721;42.206;25.320;2022-10-16T04:05:12;100464.88;;;10.92;50.74
73501;BME280;61721;42.206;25.320;2022-10-16T04:07:47;100470.03;;;10.84;50.25
73501;BME280;61721;42.206;25.320;2022-10-16T04:10:16;100464.19;;;10.79;50.20
73501;BME280;61721;42.206;25.320;2022-10-16T04:12:45;100471.75;;;10.74;50.91
73501;BME280;61721;42.206;25.320;2022-10-16T04:15:14;100465.81;;;10.70;51.33
73501;BME280;61721;42.206;25.320;2022-10-16T04:17:43;100467.16;;;10.65;50.95
73501;BME280;61721;42.206;25.320;2022-10-16T04:20:12;100467.16;;;10.54;50.98
73501;BME280;61721;42.206;25.320;2022-10-16T04:22:40;100464.97;;;10.48;50.50
73501;BME280;61721;42.206;25.320;2022-10-16T04:25:09;100465.22;;;10.45;51.29
73501;BME280;61721;42.206;25.320;2022-10-16T04:27:40;100469.13;;;10.41;50.80
73501;BME280;61721;42.206;25.320;2022-10-16T04:30:09;100463.16;;;10.37;50.98
73501;BME280;61721;42.206;25.320;2022-10-16T04:32:38;100467.16;;;10.32;51.02
73501;BME280;61721;42.206;25.320;2022-10-16T04:35:07;100474.00;;;10.36;50.95
73501;BME280;61721;42.206;25.320;2022-10-16T04:37:35;100476.41;;;10.39;50.46
73501;BME280;61721;42.206;25.320;2022-10-16T04:40:09;100482.03;;;10.36;50.40
73501;BME280;61721;42.206;25.320;2022-10-16T04:42:39;100487.38;;;10.36;50.98
73501;BME280;61721;42.206;25.320;2022-10-16T04:45:08;100481.75;;;10.39;50.31
73501;BME280;61721;42.206;25.320;2022-10-16T04:47:37;100487.47;;;10.45;50.44
73501;BME280;61721;42.206;25.320;2022-10-16T04:50:06;100488.81;;;10.51;50.16
73501;BME280;61721;42.206;25.320;2022-10-16T04:52:34;100488.19;;;10.58;50.59
73501;BME280;61721;42.206;25.320;2022-10-16T04:55:04;100494.13;;;10.73;50.50
73501;BME280;61721;42.206;25.320;2022-10-16T04:57:32;100495.84;;;10.85;50.10
73501;BME280;61721;42.206;25.320;2022-10-16T05:00:03;100492.03;;;10.99;50.05
73501;BME280;61721;42.206;25.320;2022-10-16T05:02:31;100492.84;;;11.10;49.88
73501;BME280;61721;42.206;25.320;2022-10-16T05:04:59;100486.47;;;11.23;49.64
73501;BME280;61721;42.206;25.320;2022-10-16T05:07:28;100491.78;;;11.34;49.67
73501;BME280;61721;42.206;25.320;2022-10-16T05:09:56;100498.81;;;11.46;49.24
73501;BME280;61721;42.206;25.320;2022-10-16T05:12:25;100499.94;;;11.64;48.82
73501;BME280;61721;42.206;25.320;2022-10-16T05:14:53;100504.94;;;11.89;47.73
73501;BME280;61721;42.206;25.320;2022-10-16T05:17:26;100507.69;;;12.20;47.71
73501;BME280;61721;42.206;25.320;2022-10-16T05:19:54;100505.75;;;12.52;46.67
73501;BME280;61721;42.206;25.320;2022-10-16T05:22:23;100508.84;;;12.88;45.77
73501;BME280;61721;42.206;25.320;2022-10-16T05:24:51;100511.19;;;13.21;45.50
73501;BME280;61721;42.206;25.320;2022-10-16T05:27:20;100511.94;;;13.61;44.83
73501;BME280;61721;42.206;25.320;2022-10-16T05:29:48;100512.91;;;13.99;44.03
73501;BME280;61721;42.206;25.320;2022-10-16T05:32:18;100512.00;;;14.37;43.67
73501;BME280;61721;42.206;25.320;2022-10-16T05:34:48;100516.09;;;14.78;43.04
73501;BME280;61721;42.206;25.320;2022-10-16T05:37:16;100510.47;;;15.16;42.19
73501;BME280;61721;42.206;25.320;2022-10-16T05:39:44;100513.31;;;15.60;41.45
73501;BME280;61721;42.206;25.320;2022-10-16T05:42:13;100512.34;;;16.04;40.70
73501;BME280;61721;42.206;25.320;2022-10-16T05:44:41;100525.66;;;16.49;40.25
73501;BME280;61721;42.206;25.320;2022-10-16T05:47:12;100525.38;;;16.94;39.49
73501;BME280;61721;42.206;25.320;2022-10-16T05:49:41;100533.63;;;17.35;38.84
73501;BME280;61721;42.206;25.320;2022-10-16T05:52:11;100536.09;;;17.78;38.24
73501;BME280;61721;42.206;25.320;2022-10-16T05:54:39;100527.16;;;18.18;37.70
73501;BME280;61721;42.206;25.320;2022-10-16T05:57:07;100538.75;;;18.59;37.10
73501;BME280;61721;42.206;25.320;2022-10-16T05:59:36;100536.44;;;19.03;36.38
73501;BME280;61721;42.206;25.320;2022-10-16T06:02:05;100533.91;;;19.33;36.04
73501;BME280;61721;42.206;25.320;2022-10-16T06:04:33;100541.13;;;19.40;36.06
73501;BME280;61721;42.206;25.320;2022-10-16T06:07:02;100541.22;;;19.63;35.60
73501;BME280;61721;42.206;25.320;2022-10-16T06:09:32;100546.81;;;20.07;35.08
73501;BME280;61721;42.206;25.320;2022-10-16T06:12:01;100548.56;;;20.60;34.36
73501;BME280;61721;42.206;25.320;2022-10-16T06:14:29;100551.38;;;21.25;33.51
73501;BME280;61721;42.206;25.320;2022-10-16T06:16:58;100550.56;;;21.82;32.55
73501;BME280;61721;42.206;25.320;2022-10-16T06:19:26;100549.81;;;22.37;32.38
73501;BME280;61721;42.206;25.320;2022-10-16T06:21:54;100561.34;;;22.88;31.48
73501;BME280;61721;42.206;25.320;2022-10-16T06:24:25;100564.50;;;23.33;30.96
73501;BME280;61721;42.206;25.320;2022-10-16T06:26:54;100565.69;;;23.65;31.02
73501;BME280;61721;42.206;25.320;2022-10-16T06:29:23;100558.44;;;24.18;30.28
73501;BME280;61721;42.206;25.320;2022-10-16T06:31:51;100557.84;;;24.42;30.13
73501;BME280;61721;42.206;25.320;2022-10-16T06:34:20;100565.78;;;24.96;29.65
73501;BME280;61721;42.206;25.320;2022-10-16T06:36:49;100569.16;;;24.92;29.65
73501;BME280;61721;42.206;25.320;2022-10-16T06:39:17;100578.56;;;25.29;29.15
73501;BME280;61721;42.206;25.320;2022-10-16T06:41:46;100569.78;;;25.51;29.03
73501;BME280;61721;42.206;25.320;2022-10-16T06:44:16;100577.88;;;25.84;28.96
73501;BME280;61721;42.206;25.320;2022-10-16T06:46:53;100579.03;;;26.58;27.84
73501;BME280;61721;42.206;25.320;2022-10-16T06:49:28;100581.44;;;27.15;27.08
73501;BME280;61721;42.206;25.320;2022-10-16T06:51:56;100585.19;;;27.57;27.07
73501;BME280;61721;42.206;25.320;2022-10-16T06:54:25;100588.69;;;27.64;27.10
73501;BME280;61721;42.206;25.320;2022-10-16T06:56:53;100592.47;;;28.12;26.46
73501;BME280;61721;42.206;25.320;2022-10-16T06:59:23;100586.69;;;28.66;26.21
73501;BME280;61721;42.206;25.320;2022-10-16T07:01:51;100583.97;;;29.13;25.47
73501;BME280;61721;42.206;25.320;2022-10-16T07:04:20;100592.19;;;29.36;25.54
73501;BME280;61721;42.206;25.320;2022-10-16T07:06:48;100606.50;;;29.33;25.55
73501;BME280;61721;42.206;25.320;2022-10-16T07:09:18;100595.81;;;29.25;25.93
73501;BME280;61721;42.206;25.320;2022-10-16T07:11:46;100602.28;;;29.42;25.79
73501;BME280;61721;42.206;25.320;2022-10-16T07:14:16;100603.53;;;29.63;25.44
73501;BME280;61721;42.206;25.320;2022-10-16T07:16:47;100614.31;;;29.76;25.24
73501;BME280;61721;42.206;25.320;2022-10-16T07:19:15;100602.47;;;29.52;25.82
73501;BME280;61721;42.206;25.320;2022-10-16T07:21:45;100602.75;;;29.79;25.37
73501;BME280;61721;42.206;25.320;2022-10-16T07:24:15;100596.81;;;29.99;25.27
73501;BME280;61721;42.206;25.320;2022-10-16T07:26:45;100598.00;;;30.65;24.64
73501;BME280;61721;42.206;25.320;2022-10-16T07:29:15;100606.69;;;30.90;24.05
73501;BME280;61721;42.206;25.320;2022-10-16T07:31:46;100591.78;;;30.91;24.08
73501;BME280;61721;42.206;25.320;2022-10-16T07:34:17;100596.06;;;30.82;24.01
73501;BME280;61721;42.206;25.320;2022-10-16T07:36:48;100603.09;;;31.06;23.88
73501;BME280;61721;42.206;25.320;2022-10-16T07:39:16;100602.34;;;31.76;23.26
73501;BME280;61721;42.206;25.320;2022-10-16T07:41:45;100597.41;;;31.78;22.88
73501;BME280;61721;42.206;25.320;2022-10-16T07:44:13;100601.19;;;31.72;22.87
73501;BME280;61721;42.206;25.320;2022-10-16T07:46:43;100593.75;;;32.58;22.21
73501;BME280;61721;42.206;25.320;2022-10-16T07:49:13;100603.09;;;32.47;22.36
73501;BME280;61721;42.206;25.320;2022-10-16T07:51:41;100596.69;;;32.73;22.15
73501;BME280;61721;42.206;25.320;2022-10-16T07:54:10;100600.88;;;32.76;22.14
73501;BME280;61721;42.206;25.320;2022-10-16T07:56:39;100600.03;;;32.75;22.30
73501;BME280;61721;42.206;25.320;2022-10-16T07:59:07;100595.97;;;33.30;21.82
73501;BME280;61721;42.206;25.320;2022-10-16T08:01:35;100603.81;;;33.53;21.33
73501;BME280;61721;42.206;25.320;2022-10-16T08:04:05;100604.63;;;33.43;21.10
73501;BME280;61721;42.206;25.320;2022-10-16T08:06:37;100604.88;;;33.37;21.76
73501;BME280;61721;42.206;25.320;2022-10-16T08:09:06;100607.94;;;34.18;20.90
73501;BME280;61721;42.206;25.320;2022-10-16T08:11:35;100606.06;;;34.44;20.81
73501;BME280;61721;42.206;25.320;2022-10-16T08:14:03;100604.09;;;34.80;19.90
73501;BME280;61721;42.206;25.320;2022-10-16T08:16:32;100607.97;;;34.99;20.07
73501;BME280;61721;42.206;25.320;2022-10-16T08:19:01;100604.88;;;35.05;19.87
73501;BME280;61721;42.206;25.320;2022-10-16T08:21:30;100593.16;;;35.34;19.57
73501;BME280;61721;42.206;25.320;2022-10-16T08:24:00;100592.78;;;36.15;19.31
73501;BME280;61721;42.206;25.320;2022-10-16T08:26:28;100589.34;;;36.91;18.81
73501;BME280;61721;42.206;25.320;2022-10-16T08:29:01;100589.16;;;37.35;18.31
73501;BME280;61721;42.206;25.320;2022-10-16T08:31:37;100589.09;;;37.40;18.35
73501;BME280;61721;42.206;25.320;2022-10-16T08:34:06;100594.47;;;37.07;18.58
73501;BME280;61721;42.206;25.320;2022-10-16T08:36:36;100588.25;;;37.15;18.47
73501;BME280;61721;42.206;25.320;2022-10-16T08:39:45;100580.91;;;38.09;18.32
73501;BME280;61721;42.206;25.320;2022-10-16T08:42:30;100583.63;;;39.25;17.15
73501;BME280;61721;42.206;25.320;2022-10-16T08:45:19;100578.63;;;39.09;17.12
73501;BME280;61721;42.206;25.320;2022-10-16T08:48:06;100580.53;;;39.54;16.44
73501;BME280;61721;42.206;25.320;2022-10-16T08:50:39;100587.03;;;40.27;17.67
73501;BME280;61721;42.206;25.320;2022-10-16T08:53:17;100585.56;;;40.29;16.17
73501;BME280;61721;42.206;25.320;2022-10-16T08:55:50;100589.13;;;40.21;15.54
73501;BME280;61721;42.206;25.320;2022-10-16T08:58:20;100587.66;;;39.74;16.35
73501;BME280;61721;42.206;25.320;2022-10-16T09:00:52;100585.91;;;39.64;16.12
73501;BME280;61721;42.206;25.320;2022-10-16T09:03:33;100583.28;;;40.53;15.64
73501;BME280;61721;42.206;25.320;2022-10-16T09:06:25;100589.94;;;41.59;15.48
73501;BME280;61721;42.206;25.320;2022-10-16T09:09:05;100590.34;;;42.00;14.96
73501;BME280;61721;42.206;25.320;2022-10-16T09:11:41;100587.28;;;41.54;16.72
73501;BME280;61721;42.206;25.320;2022-10-16T09:14:24;100599.72;;;41.30;15.35
73501;BME280;61721;42.206;25.320;2022-10-16T09:17:15;100594.72;;;41.58;15.57
73501;BME280;61721;42.206;25.320;2022-10-16T09:19:52;100580.41;;;41.94;15.11
73501;BME280;61721;42.206;25.320;2022-10-16T09:22:27;100590.19;;;42.40;14.70
73501;BME280;61721;42.206;25.320;2022-10-16T09:24:59;100583.41;;;43.04;14.38
73501;BME280;61721;42.206;25.320;2022-10-16T09:27:30;100581.16;;;42.89;14.09
73501;BME280;61721;42.206;25.320;2022-10-16T09:29:59;100576.44;;;42.55;14.53
73501;BME280;61721;42.206;25.320;2022-10-16T09:32:28;100572.28;;;43.17;13.78
73501;BME280;61721;42.206;25.320;2022-10-16T09:34:57;100579.88;;;43.83;13.71
73501;BME280;61721;42.206;25.320;2022-10-16T09:37:25;100568.56;;;44.46;13.36
73501;BME280;61721;42.206;25.320;2022-10-16T09:39:55;100567.47;;;45.04;12.83
73501;BME280;61721;42.206;25.320;2022-10-16T09:42:30;100565.59;;;45.44;12.46
73501;BME280;61721;42.206;25.320;2022-10-16T09:45:01;100559.06;;;45.80;12.74
73501;BME280;61721;42.206;25.320;2022-10-16T09:47:30;100548.75;;;46.00;12.62
73501;BME280;61721;42.206;25.320;2022-10-16T09:50:05;100552.69;;;46.23;12.17
73501;BME280;61721;42.206;25.320;2022-10-16T09:52:49;100553.47;;;47.11;12.63
73501;BME280;61721;42.206;25.320;2022-10-16T09:55:17;100560.50;;;47.64;13.96
73501;BME280;61721;42.206;25.320;2022-10-16T09:57:49;100549.25;;;48.06;12.05
73501;BME280;61721;42.206;25.320;2022-10-16T10:00:20;100541.25;;;48.31;11.52
73501;BME280;61721;42.206;25.320;2022-10-16T10:02:49;100541.56;;;48.26;11.64
73501;BME280;61721;42.206;25.320;2022-10-16T10:05:20;100546.75;;;47.66;11.36
73501;BME280;61721;42.206;25.320;2022-10-16T10:07:55;100536.22;;;47.51;11.45
73501;BME280;61721;42.206;25.320;2022-10-16T10:10:26;100528.78;;;48.35;11.04
73501;BME280;61721;42.206;25.320;2022-10-16T10:12:56;100532.38;;;43.65;13.68
73501;BME280;61721;42.206;25.320;2022-10-16T10:15:34;100529.97;;;44.95;12.56
73501;BME280;61721;42.206;25.320;2022-10-16T10:18:16;100520.66;;;46.07;12.32
73501;BME280;61721;42.206;25.320;2022-10-16T10:20:57;100534.06;;;47.44;11.06
73501;BME280;61721;42.206;25.320;2022-10-16T10:23:32;100527.56;;;47.79;10.99
73501;BME280;61721;42.206;25.320;2022-10-16T10:26:06;100532.53;;;48.62;9.89
73501;BME280;61721;42.206;25.320;2022-10-16T10:28:47;100532.94;;;47.84;10.77
73501;BME280;61721;42.206;25.320;2022-10-16T10:31:26;100524.97;;;46.45;11.05
73501;BME280;61721;42.206;25.320;2022-10-16T10:34:15;100519.94;;;42.60;14.07
73501;BME280;61721;42.206;25.320;2022-10-16T10:36:52;100516.97;;;47.09;11.60
73501;BME280;61721;42.206;25.320;2022-10-16T10:39:29;100508.97;;;47.46;9.72
73501;BME280;61721;42.206;25.320;2022-10-16T10:42:20;100505.56;;;47.06;11.28
73501;BME280;61721;42.206;25.320;2022-10-16T10:45:11;100498.41;;;47.28;10.80
73501;BME280;61721;42.206;25.320;2022-10-16T10:48:02;100501.78;;;48.26;13.06
73501;BME280;61721;42.206;25.320;2022-10-16T10:50:43;100493.78;;;49.79;10.25
73501;BME280;61721;42.206;25.320;2022-10-16T10:53:28;100498.47;;;50.64;9.21
73501;BME280;61721;42.206;25.320;2022-10-16T10:56:15;100494.09;;;48.91;9.84
73501;BME280;61721;42.206;25.320;2022-10-16T10:59:06;100492.81;;;49.67;9.75
73501;BME280;61721;42.206;25.320;2022-10-16T11:01:46;100489.56;;;50.32;9.12
73501;BME280;61721;42.206;25.320;2022-10-16T11:04:34;100491.56;;;49.95;9.41
73501;BME280;61721;42.206;25.320;2022-10-16T11:07:13;100485.19;;;49.45;10.10
73501;BME280;61721;42.206;25.320;2022-10-16T11:09:47;100476.34;;;50.14;9.82
73501;BME280;61721;42.206;25.320;2022-10-16T11:12:27;100486.03;;;50.09;9.53
73501;BME280;61721;42.206;25.320;2022-10-16T11:15:02;100481.31;;;49.31;9.71
73501;BME280;61721;42.206;25.320;2022-10-16T11:17:35;100478.63;;;48.92;10.27
73501;BME280;61721;42.206;25.320;2022-10-16T11:20:14;100476.41;;;49.28;9.99
73501;BME280;61721;42.206;25.320;2022-10-16T11:22:47;100469.44;;;49.25;9.27
73501;BME280;61721;42.206;25.320;2022-10-16T11:25:25;100463.94;;;47.80;9.86
73501;BME280;61721;42.206;25.320;2022-10-16T11:28:00;100467.66;;;47.84;9.80
73501;BME280;61721;42.206;25.320;2022-10-16T11:30:33;100469.47;;;48.34;9.77
73501;BME280;61721;42.206;25.320;2022-10-16T11:33:10;100472.03;;;48.39;9.40
73501;BME280;61721;42.206;25.320;2022-10-16T11:35:48;100468.50;;;48.46;9.74
73501;BME280;61721;42.206;25.320;2022-10-16T11:38:27;100472.38;;;48.15;9.26
73501;BME280;61721;42.206;25.320;2022-10-16T11:41:02;100471.09;;;46.88;9.64
73501;BME280;61721;42.206;25.320;2022-10-16T11:43:35;100465.03;;;46.74;10.40
73501;BME280;61721;42.206;25.320;2022-10-16T11:46:11;100458.19;;;48.60;9.52
73501;BME280;61721;42.206;25.320;2022-10-16T11:48:44;100463.47;;;49.63;9.29
73501;BME280;61721;42.206;25.320;2022-10-16T11:51:19;100464.97;;;50.17;8.93
73501;BME280;61721;42.206;25.320;2022-10-16T11:53:55;100464.28;;;50.27;8.87
73501;BME280;61721;42.206;25.320;2022-10-16T11:56:28;100461.63;;;50.45;8.63
73501;BME280;61721;42.206;25.320;2022-10-16T11:59:00;100459.22;;;50.50;7.86
73501;BME280;61721;42.206;25.320;2022-10-16T12:01:35;100455.78;;;50.75;8.26
73501;BME280;61721;42.206;25.320;2022-10-16T12:04:16;100453.59;;;50.58;8.03
73501;BME280;61721;42.206;25.320;2022-10-16T12:06:52;100461.38;;;49.31;8.52
73501;BME280;61721;42.206;25.320;2022-10-16T12:09:27;100453.88;;;47.47;9.22
73501;BME280;61721;42.206;25.320;2022-10-16T12:11:56;100446.72;;;47.53;9.32
73501;BME280;61721;42.206;25.320;2022-10-16T12:14:38;100455.75;;;47.59;8.76
73501;BME280;61721;42.206;25.320;2022-10-16T12:17:25;100451.91;;;46.97;9.56
73501;BME280;61721;42.206;25.320;2022-10-16T12:19:59;100454.13;;;45.85;9.85
73501;BME280;61721;42.206;25.320;2022-10-16T12:22:35;100465.22;;;45.14;9.93
73501;BME280;61721;42.206;25.320;2022-10-16T12:25:04;100456.69;;;45.50;9.37
73501;BME280;61721;42.206;25.320;2022-10-16T12:27:33;100460.34;;;45.39;9.54
73501;BME280;61721;42.206;25.320;2022-10-16T12:30:04;100462.16;;;45.07;9.14
73501;BME280;61721;42.206;25.320;2022-10-16T12:32:36;100454.13;;;45.21;9.43
73501;BME280;61721;42.206;25.320;2022-10-16T12:35:18;100460.78;;;43.57;10.06
73501;BME280;61721;42.206;25.320;2022-10-16T12:37:50;100462.19;;;42.46;10.37
73501;BME280;61721;42.206;25.320;2022-10-16T12:40:29;100462.28;;;41.94;10.72
73501;BME280;61721;42.206;25.320;2022-10-16T12:42:58;100461.75;;;41.83;11.16
73501;BME280;61721;42.206;25.320;2022-10-16T12:45:29;100460.94;;;41.49;11.38
73501;BME280;61721;42.206;25.320;2022-10-16T12:48:01;100469.19;;;40.57;11.88
73501;BME280;61721;42.206;25.320;2022-10-16T12:50:35;100467.88;;;39.66;13.85
73501;BME280;61721;42.206;25.320;2022-10-16T12:53:18;100466.66;;;38.03;14.38
73501;BME280;61721;42.206;25.320;2022-10-16T12:55:56;100460.72;;;36.63;15.18
73501;BME280;61721;42.206;25.320;2022-10-16T12:58:49;100468.72;;;35.29;16.39
73501;BME280;61721;42.206;25.320;2022-10-16T13:01:29;100461.16;;;34.55;17.25
73501;BME280;61721;42.206;25.320;2022-10-16T13:07:20;100460.66;;;33.82;18.08
73501;BME280;61721;42.206;25.320;2022-10-16T13:10:03;100461.22;;;33.07;18.55
73501;BME280;61721;42.206;25.320;2022-10-16T13:13:07;100464.97;;;31.70;19.60